createdAt,value
2022-10-26T00:01:16.907Z,7.10
2022-10-26T00:03:45.515Z,7.18
2022-10-26T00:06:24.970Z,7.10
2022-10-26T00:08:52.890Z,6.88
2022-10-26T00:11:20.264Z,7.07
2022-10-26T00:13:48.263Z,6.57
2022-10-26T00:16:27.167Z,8.02
2022-10-26T00:18:54.749Z,7.05
2022-10-26T00:21:21.903Z,6.60
2022-10-26T00:23:48.946Z,5.75
2022-10-26T00:26:16.110Z,6.18
2022-10-26T00:28:43.196Z,6.10
2022-10-26T00:31:15.594Z,7.10
2022-10-26T00:33:42.814Z,6.30
2022-10-26T00:36:10.746Z,6.60
2022-10-26T00:38:38.272Z,6.57
2022-10-26T00:41:05.753Z,5.90
2022-10-26T00:43:34.646Z,6.47
2022-10-26T00:46:05.185Z,7.18
2022-10-26T00:48:36.293Z,7.30
2022-10-26T00:51:08.579Z,6.50
2022-10-26T00:53:36.329Z,6.72
2022-10-26T00:56:03.981Z,7.05
2022-10-26T00:58:32.586Z,8.60
2022-10-26T01:00:59.614Z,9.88
2022-10-26T01:03:28.362Z,8.18
2022-10-26T01:05:57.994Z,7.88
2022-10-26T01:08:26.406Z,9.05
2022-10-26T01:10:53.938Z,7.97
2022-10-26T01:13:21.259Z,8.23
2022-10-26T01:16:03.910Z,7.47
2022-10-26T01:19:13.135Z,7.95
2022-10-26T01:21:55.346Z,7.95
2022-10-26T01:24:43.897Z,8.93
2022-10-26T01:27:20.106Z,7.88
2022-10-26T01:30:25.426Z,7.70
2022-10-26T01:33:22.524Z,7.85
2022-10-26T01:36:19.447Z,7.88
2022-10-26T01:39:02.084Z,7.30
2022-10-26T01:41:44.949Z,7.32
2022-10-26T01:44:19.842Z,7.80
2022-10-26T01:46:50.756Z,7.85
2022-10-26T01:49:22.637Z,6.55
2022-10-26T01:51:50.654Z,7.30
2022-10-26T01:54:17.853Z,7.07
2022-10-26T01:56:50.919Z,6.40
2022-10-26T01:59:42.535Z,6.60
2022-10-26T02:02:12.617Z,6.72
2022-10-26T02:04:45.681Z,7.03
2022-10-26T02:07:25.003Z,5.93
2022-10-26T02:10:30.744Z,6.13
2022-10-26T02:13:24.086Z,6.55
2022-10-26T02:16:07.125Z,6.65
2022-10-26T02:18:52.063Z,5.97
2022-10-26T02:21:28.340Z,6.95
2022-10-26T02:23:58.589Z,7.25
2022-10-26T02:26:28.870Z,6.70
2022-10-26T02:29:01.140Z,7.95
2022-10-26T02:31:30.101Z,7.35
2022-10-26T02:34:02.155Z,8.25
2022-10-26T02:36:33.236Z,8.00
2022-10-26T02:39:03.649Z,6.97
2022-10-26T02:41:31.737Z,7.65
2022-10-26T02:44:11.637Z,7.07
2022-10-26T02:46:39.191Z,7.80
2022-10-26T02:49:06.456Z,7.82
2022-10-26T02:52:05.125Z,7.18
2022-10-26T02:54:54.191Z,7.22
2022-10-26T02:57:29.531Z,6.35
2022-10-26T02:59:57.597Z,6.38
2022-10-26T03:02:25.072Z,8.15
2022-10-26T03:04:53.969Z,7.43
2022-10-26T03:07:23.286Z,6.70
2022-10-26T03:09:50.728Z,6.90
2022-10-26T03:12:18.550Z,6.82
2022-10-26T03:14:45.709Z,7.10
2022-10-26T03:17:12.700Z,7.47
2022-10-26T03:19:39.778Z,6.60
2022-10-26T03:22:06.947Z,7.68
2022-10-26T03:24:33.901Z,7.13
2022-10-26T03:27:02.305Z,6.93
2022-10-26T03:29:29.711Z,6.95
2022-10-26T03:31:56.811Z,8.30
2022-10-26T03:34:23.814Z,7.30
2022-10-26T03:36:50.835Z,6.38
2022-10-26T03:39:17.916Z,6.55
2022-10-26T03:41:45.055Z,6.53
2022-10-26T03:44:12.213Z,6.72
2022-10-26T03:46:39.228Z,7.03
2022-10-26T03:49:06.265Z,7.25
2022-10-26T03:51:33.378Z,7.32
2022-10-26T03:54:00.374Z,8.27
2022-10-26T03:56:27.489Z,7.80
2022-10-26T03:58:54.497Z,7.30
2022-10-26T04:01:21.532Z,6.97
2022-10-26T04:03:48.698Z,7.00
2022-10-26T04:06:15.896Z,7.43
2022-10-26T04:08:42.880Z,6.50
2022-10-26T04:11:09.930Z,8.63
2022-10-26T04:13:37.128Z,7.03
2022-10-26T04:16:04.411Z,6.88
2022-10-26T04:18:31.390Z,7.32
2022-10-26T04:21:02.098Z,7.10
2022-10-26T04:23:29.205Z,6.82
2022-10-26T04:25:56.308Z,7.60
2022-10-26T04:28:23.360Z,7.47
2022-10-26T04:30:50.402Z,7.35
2022-10-26T04:33:17.528Z,7.55
2022-10-26T04:35:45.872Z,6.53
2022-10-26T04:38:12.954Z,8.38
2022-10-26T04:40:40.072Z,8.15
2022-10-26T04:43:07.228Z,6.57
2022-10-26T04:45:34.501Z,6.97
2022-10-26T04:48:06.597Z,6.60
2022-10-26T04:50:34.225Z,6.53
2022-10-26T04:53:05.310Z,7.38
2022-10-26T04:55:32.606Z,8.38
2022-10-26T04:58:01.319Z,7.35
2022-10-26T05:00:31.175Z,7.10
2022-10-26T05:03:02.602Z,7.47
2022-10-26T05:05:31.611Z,7.28
2022-10-26T05:07:59.020Z,6.60
2022-10-26T05:10:27.021Z,6.40
2022-10-26T05:12:55.565Z,7.32
2022-10-26T05:15:23.348Z,7.25
2022-10-26T05:18:03.027Z,6.90
2022-10-26T05:20:31.731Z,7.45
2022-10-26T05:23:03.722Z,8.18
2022-10-26T05:25:37.740Z,8.15
2022-10-26T05:28:13.415Z,7.72
2022-10-26T05:30:42.143Z,9.38
2022-10-26T05:33:10.982Z,9.57
2022-10-26T05:35:38.818Z,9.43
2022-10-26T05:38:15.092Z,9.77
2022-10-26T05:40:49.541Z,10.98
2022-10-26T05:43:16.804Z,10.35
2022-10-26T05:45:43.919Z,10.70
2022-10-26T05:48:10.927Z,9.88
2022-10-26T05:50:37.997Z,9.70
2022-10-26T05:53:05.273Z,8.95
2022-10-26T05:55:32.781Z,8.32
2022-10-26T05:58:00.088Z,9.38
2022-10-26T06:00:29.488Z,8.00
2022-10-26T06:03:27.391Z,8.60
2022-10-26T06:05:57.045Z,7.93
2022-10-26T06:08:26.542Z,8.30
2022-10-26T06:10:54.745Z,8.68
2022-10-26T06:13:22.935Z,8.40
2022-10-26T06:16:08.660Z,8.73
2022-10-26T06:19:02.036Z,7.68
2022-10-26T06:21:46.520Z,8.15
2022-10-26T06:24:48.428Z,8.90
2022-10-26T06:27:37.172Z,7.68
2022-10-26T06:30:12.603Z,7.43
2022-10-26T06:32:41.097Z,6.90
2022-10-26T06:35:26.920Z,6.88
2022-10-26T06:37:56.433Z,8.70
2022-10-26T06:40:24.497Z,7.72
2022-10-26T06:42:51.761Z,7.32
2022-10-26T06:45:19.300Z,10.43
2022-10-26T06:47:51.531Z,8.07
2022-10-26T06:50:54.645Z,9.02
2022-10-26T06:53:44.104Z,7.85
2022-10-26T06:56:13.748Z,13.90
2022-10-26T06:58:42.046Z,7.80
2022-10-26T07:01:12.325Z,8.05
2022-10-26T07:03:39.439Z,8.63
2022-10-26T07:06:06.790Z,7.10
2022-10-26T07:08:34.426Z,7.55
2022-10-26T07:11:01.688Z,7.60
2022-10-26T07:13:28.794Z,7.00
2022-10-26T07:15:55.940Z,7.13
2022-10-26T07:18:22.901Z,7.00
2022-10-26T07:20:49.975Z,7.55
2022-10-26T07:23:17.185Z,6.88
2022-10-26T07:25:44.274Z,7.18
2022-10-26T07:28:11.764Z,7.45
2022-10-26T07:30:40.055Z,7.15
2022-10-26T07:33:13.192Z,7.78
2022-10-26T07:35:40.885Z,7.32
2022-10-26T07:38:08.414Z,7.50
2022-10-26T07:40:37.207Z,6.43
2022-10-26T07:43:04.398Z,6.50
2022-10-26T07:45:33.848Z,6.25
2022-10-26T07:48:01.034Z,6.30
2022-10-26T07:50:28.066Z,7.20
2022-10-26T07:52:54.994Z,7.28
2022-10-26T07:55:22.057Z,7.35
2022-10-26T07:57:53.810Z,6.60
2022-10-26T08:00:22.149Z,7.38
2022-10-26T08:02:49.195Z,6.28
2022-10-26T08:05:16.254Z,6.38
2022-10-26T08:07:44.933Z,6.35
2022-10-26T08:10:13.134Z,6.00
2022-10-26T08:12:40.879Z,7.07
2022-10-26T08:15:08.508Z,6.32
2022-10-26T08:17:35.777Z,6.55
2022-10-26T08:20:02.991Z,6.90
2022-10-26T08:22:31.016Z,6.07
2022-10-26T08:24:58.351Z,6.63
2022-10-26T08:27:25.901Z,6.70
2022-10-26T08:29:53.011Z,6.32
2022-10-26T08:32:20.128Z,5.47
2022-10-26T08:34:47.186Z,7.35
2022-10-26T08:37:14.306Z,6.55
2022-10-26T08:39:41.341Z,6.22
2022-10-26T08:42:19.523Z,6.30
2022-10-26T08:44:48.827Z,6.53
2022-10-26T08:47:25.604Z,6.43
2022-10-26T08:50:04.875Z,5.85
2022-10-26T08:52:38.101Z,5.80
2022-10-26T08:55:13.945Z,7.65
2022-10-26T08:57:42.810Z,6.82
2022-10-26T09:00:15.498Z,6.82
2022-10-26T09:02:42.593Z,7.72
2022-10-26T09:05:18.336Z,6.85
2022-10-26T09:08:13.093Z,7.15
2022-10-26T09:10:58.699Z,5.90
2022-10-26T09:13:44.886Z,5.97
2022-10-26T09:16:28.357Z,6.68
2022-10-26T09:19:04.407Z,6.75
2022-10-26T09:21:51.300Z,6.10
2022-10-26T09:24:39.208Z,6.63
2022-10-26T09:27:20.864Z,5.88
2022-10-26T09:29:49.547Z,6.25
2022-10-26T09:32:20.715Z,5.80
2022-10-26T09:34:58.762Z,5.93
2022-10-26T09:37:32.858Z,6.68
2022-10-26T09:40:13.518Z,6.00
2022-10-26T09:42:45.819Z,5.60
2022-10-26T09:45:31.496Z,6.40
2022-10-26T09:48:12.549Z,6.57
2022-10-26T09:50:43.949Z,6.25
2022-10-26T09:53:11.039Z,6.20
2022-10-26T09:55:44.410Z,6.50
2022-10-26T09:58:20.576Z,6.53
2022-10-26T10:00:52.223Z,7.25
2022-10-26T10:03:24.921Z,6.30
2022-10-26T10:05:52.939Z,6.18
2022-10-26T10:08:25.280Z,6.20
2022-10-26T10:11:02.257Z,6.60
2022-10-26T10:13:37.524Z,7.32
2022-10-26T10:16:12.513Z,7.25
2022-10-26T10:18:41.284Z,6.80
2022-10-26T10:21:10.301Z,6.65
2022-10-26T10:23:52.755Z,6.75
2022-10-26T10:26:19.884Z,6.80
2022-10-26T10:29:01.207Z,5.95
2022-10-26T10:31:33.705Z,5.68
2022-10-26T10:34:00.652Z,6.57
2022-10-26T10:36:30.515Z,7.28
2022-10-26T10:38:57.466Z,6.57
2022-10-26T10:41:31.202Z,6.65
2022-10-26T10:44:21.250Z,6.60
2022-10-26T10:46:48.619Z,5.97
2022-10-26T10:49:27.688Z,6.15
2022-10-26T10:51:56.123Z,5.90
2022-10-26T10:54:39.202Z,6.85
2022-10-26T10:57:43.303Z,6.60
2022-10-26T11:00:12.329Z,6.10
2022-10-26T11:03:16.932Z,6.75
2022-10-26T11:05:52.512Z,6.40
2022-10-26T11:08:39.656Z,5.82
2022-10-26T11:11:12.386Z,6.70
2022-10-26T11:14:14.105Z,6.93
2022-10-26T11:16:46.542Z,6.22
2022-10-26T11:19:19.535Z,7.38
2022-10-26T11:21:52.295Z,6.93
2022-10-26T11:24:36.806Z,7.50
2022-10-26T11:27:19.053Z,6.60
2022-10-26T11:29:58.730Z,7.13
2022-10-26T11:32:25.712Z,6.70
2022-10-26T11:35:03.141Z,7.13
2022-10-26T11:37:37.717Z,7.63
2022-10-26T11:40:15.273Z,7.25
2022-10-26T11:42:49.047Z,6.40
2022-10-26T11:45:23.551Z,7.72
2022-10-26T11:48:01.176Z,7.07
2022-10-26T11:50:34.981Z,8.18
2022-10-26T11:53:21.243Z,6.82
2022-10-26T11:55:52.612Z,6.78
2022-10-26T11:58:24.163Z,6.35
2022-10-26T12:00:57.890Z,6.78
2022-10-26T12:03:32.906Z,6.75
2022-10-26T12:05:59.962Z,6.18
2022-10-26T12:08:51.289Z,6.40
2022-10-26T12:11:36.659Z,6.38
2022-10-26T12:14:09.412Z,7.10
2022-10-26T12:17:14.890Z,6.85
2022-10-26T12:20:06.092Z,6.43
2022-10-26T12:22:37.158Z,6.05
2022-10-26T12:25:16.040Z,6.43
2022-10-26T12:27:42.975Z,6.32
2022-10-26T12:30:37.170Z,6.97
2022-10-26T12:33:30.584Z,6.25
2022-10-26T12:35:57.800Z,6.80
2022-10-26T12:38:25.620Z,6.20
2022-10-26T12:41:10.770Z,5.93
2022-10-26T12:43:41.679Z,5.63
2022-10-26T12:46:14.423Z,5.65
2022-10-26T12:48:46.555Z,6.60
2022-10-26T12:51:20.076Z,6.03
2022-10-26T12:54:05.677Z,6.72
2022-10-26T12:56:55.391Z,6.13
2022-10-26T12:59:48.745Z,6.70
2022-10-26T13:02:37.059Z,6.40
2022-10-26T13:05:14.383Z,5.97
2022-10-26T13:07:42.185Z,6.07
2022-10-26T13:10:12.227Z,6.28
2022-10-26T13:12:48.775Z,5.78
2022-10-26T13:15:33.602Z,5.75
2022-10-26T13:18:18.732Z,6.18
2022-10-26T13:21:03.896Z,6.13
2022-10-26T13:23:34.998Z,6.18
2022-10-26T13:26:20.149Z,5.80
2022-10-26T13:28:55.675Z,5.55
2022-10-26T13:31:28.789Z,5.40
2022-10-26T13:34:09.987Z,5.82
2022-10-26T13:36:43.220Z,6.35
2022-10-26T13:39:35.911Z,5.95
2022-10-26T13:42:03.732Z,6.03
2022-10-26T13:44:48.316Z,6.40
2022-10-26T13:47:51.899Z,6.05
2022-10-26T13:50:41.420Z,6.72
2022-10-26T13:53:16.742Z,6.50
2022-10-26T13:55:53.133Z,7.35
2022-10-26T13:58:40.864Z,7.43
2022-10-26T14:03:41.114Z,7.05
2022-10-26T14:06:26.668Z,6.50
2022-10-26T14:08:58.279Z,6.57
2022-10-26T14:11:36.056Z,6.97
2022-10-26T14:14:04.571Z,6.72
2022-10-26T14:16:33.852Z,6.00
2022-10-26T14:19:03.877Z,7.00
2022-10-26T14:21:30.897Z,7.07
2022-10-26T14:24:03.607Z,7.18
2022-10-26T14:26:39.426Z,6.82
2022-10-26T14:29:18.407Z,6.30
2022-10-26T14:31:45.462Z,5.85
2022-10-26T14:34:13.176Z,6.15
2022-10-26T14:36:59.246Z,7.30
2022-10-26T14:39:33.767Z,7.72
2022-10-26T14:42:06.266Z,7.13
2022-10-26T14:44:37.454Z,7.20
2022-10-26T14:47:04.545Z,6.38
2022-10-26T14:49:31.501Z,7.05
2022-10-26T14:52:00.145Z,7.35
2022-10-26T14:54:28.984Z,7.05
2022-10-26T14:56:57.003Z,6.90
2022-10-26T14:59:31.888Z,6.55
2022-10-26T15:02:00.032Z,6.53
2022-10-26T15:04:28.765Z,7.20
2022-10-26T15:07:18.323Z,6.85
2022-10-26T15:09:49.986Z,7.35
2022-10-26T15:12:36.392Z,7.00
2022-10-26T15:15:15.502Z,6.60
2022-10-26T15:17:49.410Z,6.63
2022-10-26T15:20:20.279Z,7.53
2022-10-26T15:22:54.156Z,7.25
2022-10-26T15:25:24.570Z,7.53
2022-10-26T15:27:52.126Z,6.60
2022-10-26T15:30:23.691Z,7.07
2022-10-26T15:32:52.877Z,8.15
2022-10-26T15:35:20.066Z,7.57
2022-10-26T15:37:48.407Z,7.05
2022-10-26T15:40:15.818Z,7.00
2022-10-26T15:42:45.595Z,6.93
2022-10-26T15:45:28.148Z,7.43
2022-10-26T15:47:57.725Z,7.35
2022-10-26T15:50:27.953Z,7.70
2022-10-26T15:53:03.046Z,9.13
2022-10-26T15:55:30.781Z,7.63
2022-10-26T15:57:57.935Z,7.97
2022-10-26T16:00:24.987Z,7.97
2022-10-26T16:02:52.821Z,9.00
2022-10-26T16:05:19.807Z,8.82
2022-10-26T16:07:48.728Z,8.90
2022-10-26T16:10:23.624Z,9.25
2022-10-26T16:12:51.625Z,9.80
2022-10-26T16:15:24.537Z,9.95
2022-10-26T16:17:52.390Z,8.40
2022-10-26T16:20:27.395Z,8.27
2022-10-26T16:22:55.102Z,8.07
2022-10-26T16:25:26.046Z,8.88
2022-10-26T16:27:55.200Z,8.68
2022-10-26T16:30:25.811Z,7.85
2022-10-26T16:32:56.071Z,8.15
2022-10-26T16:35:23.395Z,7.85
2022-10-26T16:37:50.589Z,7.63
2022-10-26T16:40:17.572Z,8.23
2022-10-26T16:42:44.803Z,7.57
2022-10-26T16:45:12.472Z,7.97
2022-10-26T16:47:40.298Z,6.03
2022-10-26T16:50:12.216Z,7.30
2022-10-26T16:52:39.796Z,7.03
2022-10-26T16:55:09.316Z,6.50
2022-10-26T16:57:37.472Z,7.45
2022-10-26T17:00:06.642Z,6.13
2022-10-26T17:02:33.878Z,6.82
2022-10-26T17:05:04.235Z,6.40
2022-10-26T17:07:34.484Z,6.18
2022-10-26T17:10:01.794Z,5.88
2022-10-26T17:12:30.738Z,6.78
2022-10-26T17:14:59.074Z,7.45
2022-10-26T17:17:26.679Z,6.75
2022-10-26T17:19:54.351Z,7.20
2022-10-26T17:22:21.310Z,6.25
2022-10-26T17:24:48.306Z,6.53
2022-10-26T17:27:17.063Z,6.55
2022-10-26T17:29:44.055Z,6.03
2022-10-26T17:32:11.030Z,6.38
2022-10-26T17:34:38.042Z,6.38
2022-10-26T17:37:05.136Z,5.88
2022-10-26T17:39:32.092Z,6.50
2022-10-26T17:41:59.114Z,7.00
2022-10-26T17:44:26.193Z,6.63
2022-10-26T17:46:53.182Z,7.68
2022-10-26T17:49:23.564Z,7.85
2022-10-26T17:51:53.519Z,6.63
2022-10-26T17:54:20.870Z,6.43
2022-10-26T17:56:48.006Z,6.55
2022-10-26T17:59:14.978Z,8.88
2022-10-26T18:01:43.570Z,6.10
2022-10-26T18:04:10.954Z,6.88
2022-10-26T18:06:38.113Z,6.55
2022-10-26T18:09:05.061Z,5.72
2022-10-26T18:14:04.087Z,7.30
2022-10-26T18:16:31.292Z,6.72
2022-10-26T18:19:04.488Z,6.57
2022-10-26T18:21:34.037Z,6.60
2022-10-26T18:24:01.006Z,8.00
2022-10-26T18:26:29.328Z,7.28
2022-10-26T18:29:02.502Z,8.00
2022-10-26T18:31:32.029Z,6.97
2022-10-26T18:34:01.593Z,7.18
2022-10-26T18:36:29.760Z,7.22
2022-10-26T18:38:57.229Z,6.15
2022-10-26T18:41:25.668Z,7.05
2022-10-26T18:43:55.157Z,7.00
2022-10-26T18:46:28.466Z,6.68
2022-10-26T18:48:56.588Z,6.78
2022-10-26T18:51:28.804Z,6.80
2022-10-26T18:53:56.644Z,6.43
2022-10-26T18:56:25.093Z,6.50
2022-10-26T18:58:54.196Z,6.60
2022-10-26T19:01:26.688Z,6.50
2022-10-26T19:03:55.766Z,7.00
2022-10-26T19:06:28.704Z,7.13
2022-10-26T19:08:56.708Z,7.35
2022-10-26T19:11:27.030Z,6.57
2022-10-26T19:13:54.279Z,6.43
2022-10-26T19:16:44.484Z,6.40
2022-10-26T19:19:12.923Z,6.25
2022-10-26T19:21:39.930Z,6.60
2022-10-26T19:24:12.526Z,7.10
2022-10-26T19:26:43.145Z,6.78
2022-10-26T19:29:15.582Z,6.45
2022-10-26T19:31:45.022Z,7.47
2022-10-26T19:34:14.028Z,7.35
2022-10-26T19:36:45.092Z,7.03
2022-10-26T19:39:17.203Z,7.53
2022-10-26T19:41:46.447Z,6.47
2022-10-26T19:44:15.075Z,7.50
2022-10-26T19:46:44.665Z,6.82
2022-10-26T19:49:13.269Z,6.47
2022-10-26T19:51:40.811Z,6.50
2022-10-26T19:54:07.941Z,6.22
2022-10-26T19:56:36.788Z,5.85
2022-10-26T19:59:05.424Z,6.10
2022-10-26T20:01:34.252Z,6.95
2022-10-26T20:04:02.881Z,7.07
2022-10-26T20:06:31.161Z,6.55
2022-10-26T20:08:59.178Z,6.80
2022-10-26T20:11:26.426Z,7.85
2022-10-26T20:13:55.681Z,7.88
2022-10-26T20:16:22.912Z,8.27
2022-10-26T20:18:49.965Z,7.05
2022-10-26T20:21:17.976Z,7.78
2022-10-26T20:23:45.432Z,7.63
2022-10-26T20:26:19.394Z,7.30
2022-10-26T20:28:51.120Z,7.07
2022-10-26T20:31:20.016Z,7.20
2022-10-26T20:33:52.516Z,7.10
2022-10-26T20:36:20.264Z,7.32
2022-10-26T20:38:47.826Z,7.60
2022-10-26T20:41:15.459Z,7.45
2022-10-26T20:43:42.952Z,7.43
2022-10-26T20:46:11.706Z,6.97
2022-10-26T20:48:39.147Z,7.10
2022-10-26T20:51:26.697Z,7.32
2022-10-26T20:54:05.533Z,7.60
2022-10-26T20:56:34.671Z,6.93
2022-10-26T20:59:04.309Z,7.90
2022-10-26T21:01:35.460Z,6.90
2022-10-26T21:04:04.244Z,7.57
2022-10-26T21:06:40.312Z,7.70
2022-10-26T21:09:09.207Z,6.82
2022-10-26T21:11:36.611Z,7.15
2022-10-26T21:14:05.547Z,8.05
2022-10-26T21:16:33.115Z,7.57
2022-10-26T21:19:00.629Z,7.75
2022-10-26T21:21:28.016Z,8.50
2022-10-26T21:23:58.065Z,7.40
2022-10-26T21:26:25.233Z,8.00
2022-10-26T21:28:52.431Z,8.15
2022-10-26T21:31:21.458Z,7.32
2022-10-26T21:33:49.070Z,8.07
2022-10-26T21:36:17.035Z,9.18
2022-10-26T21:38:46.113Z,8.05
2022-10-26T21:41:18.232Z,8.10
2022-10-26T21:43:48.092Z,7.63
2022-10-26T21:46:17.155Z,7.53
2022-10-26T21:48:45.529Z,8.05
2022-10-26T21:51:19.276Z,7.93
2022-10-26T21:53:48.238Z,7.70
2022-10-26T21:56:21.349Z,7.50
2022-10-26T21:58:49.082Z,7.60
2022-10-26T22:01:19.147Z,7.28
2022-10-26T22:03:47.205Z,7.55
2022-10-26T22:08:50.057Z,6.70
2022-10-26T22:11:23.389Z,6.70
2022-10-26T22:13:51.891Z,6.35
2022-10-26T22:16:25.392Z,7.07
2022-10-26T22:18:54.976Z,7.07
2022-10-26T22:21:26.241Z,7.50
2022-10-26T22:23:53.826Z,7.38
2022-10-26T22:26:25.011Z,7.15
2022-10-26T22:28:58.027Z,6.95
2022-10-26T22:31:33.270Z,7.57
2022-10-26T22:34:07.925Z,6.60
2022-10-26T22:36:36.199Z,7.07
2022-10-26T22:39:04.328Z,6.65
2022-10-26T22:41:31.843Z,7.53
2022-10-26T22:43:59.282Z,6.47
2022-10-26T22:46:28.320Z,6.72
2022-10-26T22:48:57.386Z,6.78
2022-10-26T22:51:26.115Z,6.70
2022-10-26T22:53:55.518Z,6.35
2022-10-26T22:56:24.045Z,6.05
2022-10-26T22:58:53.612Z,5.78
2022-10-26T23:01:26.997Z,5.00
2022-10-26T23:03:57.753Z,5.75
2022-10-26T23:06:27.362Z,5.90
2022-10-26T23:08:54.783Z,5.40
2022-10-26T23:11:23.448Z,5.65
2022-10-26T23:13:55.252Z,5.70
2022-10-26T23:16:22.578Z,5.43
2022-10-26T23:18:50.058Z,4.80
2022-10-26T23:21:17.995Z,5.32
2022-10-26T23:23:45.427Z,5.50
2022-10-26T23:26:17.844Z,5.65
2022-10-26T23:28:45.839Z,5.63
2022-10-26T23:31:25.904Z,6.03
2022-10-26T23:33:55.290Z,5.60
2022-10-26T23:36:23.169Z,5.45
2022-10-26T23:38:50.497Z,5.25
2022-10-26T23:41:17.859Z,5.60
2022-10-26T23:43:45.057Z,5.88
2022-10-26T23:46:12.302Z,5.85
2022-10-26T23:48:39.440Z,6.13
2022-10-26T23:51:06.642Z,6.05
2022-10-26T23:53:34.017Z,5.70
2022-10-26T23:56:02.086Z,5.32
2022-10-26T23:58:29.304Z,5.60
